createdAt,value
2022-12-17T00:00:35.034Z,6.57
2022-12-17T00:03:20.404Z,6.83
2022-12-17T00:06:05.764Z,5.70
2022-12-17T00:08:51.441Z,7.40
2022-12-17T00:11:37.541Z,9.60
2022-12-17T00:14:23.295Z,9.73
2022-12-17T00:17:08.663Z,7.73
2022-12-17T00:19:56.308Z,5.93
2022-12-17T00:22:42.056Z,6.30
2022-12-17T00:25:27.788Z,6.37
2022-12-17T00:28:13.225Z,6.00
2022-12-17T00:30:58.509Z,10.80
2022-12-17T00:33:44.017Z,9.83
2022-12-17T00:36:29.188Z,7.70
2022-12-17T00:39:14.400Z,7.27
2022-12-17T00:41:59.759Z,7.70
2022-12-17T00:44:45.124Z,8.70
2022-12-17T00:47:30.449Z,7.27
2022-12-17T00:50:15.635Z,8.13
2022-12-17T00:53:00.934Z,9.40
2022-12-17T00:55:46.013Z,10.90
2022-12-17T00:58:31.438Z,10.00
2022-12-17T01:01:20.259Z,9.53
2022-12-17T01:04:05.670Z,7.50
2022-12-17T01:06:51.021Z,8.50
2022-12-17T01:09:36.856Z,6.90
2022-12-17T01:12:22.566Z,8.57
2022-12-17T01:15:07.874Z,8.60
2022-12-17T01:17:53.117Z,7.47
2022-12-17T01:20:42.197Z,7.87
2022-12-17T01:23:27.848Z,7.37
2022-12-17T01:26:15.049Z,7.97
2022-12-17T01:29:01.436Z,7.10
2022-12-17T01:31:47.418Z,7.03
2022-12-17T01:34:32.650Z,8.77
2022-12-17T01:37:17.775Z,7.70
2022-12-17T01:40:03.042Z,7.30
2022-12-17T01:43:05.926Z,8.13
2022-12-17T01:46:04.693Z,7.10
2022-12-17T01:48:59.903Z,6.80
2022-12-17T01:51:46.725Z,7.03
2022-12-17T01:54:33.201Z,7.83
2022-12-17T01:57:20.048Z,7.93
2022-12-17T02:00:21.506Z,7.90
2022-12-17T02:03:11.387Z,8.10
2022-12-17T02:06:35.887Z,7.87
2022-12-17T02:09:44.678Z,7.60
2022-12-17T02:12:44.321Z,7.43
2022-12-17T02:15:47.597Z,7.70
2022-12-17T02:18:41.036Z,6.80
2022-12-17T02:21:27.516Z,8.13
2022-12-17T02:24:47.866Z,6.73
2022-12-17T02:27:35.187Z,6.43
2022-12-17T02:30:26.044Z,8.63
2022-12-17T02:33:12.242Z,11.93
2022-12-17T02:36:25.627Z,15.17
2022-12-17T02:39:11.060Z,9.23
2022-12-17T02:42:11.674Z,9.20
2022-12-17T02:44:59.136Z,7.43
2022-12-17T02:47:44.699Z,6.63
2022-12-17T02:50:31.191Z,6.67
2022-12-17T02:53:20.755Z,6.57
2022-12-17T02:56:06.057Z,6.33
2022-12-17T02:58:51.201Z,6.53
2022-12-17T03:01:36.828Z,8.07
2022-12-17T03:04:22.712Z,6.30
2022-12-17T03:07:08.652Z,8.43
2022-12-17T03:09:53.839Z,7.27
2022-12-17T03:12:39.153Z,7.83
2022-12-17T03:15:25.480Z,7.70
2022-12-17T03:18:10.988Z,6.93
2022-12-17T03:20:56.298Z,7.10
2022-12-17T03:23:41.953Z,5.80
2022-12-17T03:26:27.343Z,5.57
2022-12-17T03:29:13.220Z,5.93
2022-12-17T03:31:58.574Z,5.50
2022-12-17T03:34:43.788Z,5.10
2022-12-17T03:37:29.372Z,5.00
2022-12-17T03:40:14.757Z,4.80
2022-12-17T03:43:01.046Z,5.03
2022-12-17T03:45:46.362Z,4.80
2022-12-17T03:48:33.878Z,4.60
2022-12-17T03:51:20.338Z,5.03
2022-12-17T03:54:06.795Z,5.00
2022-12-17T03:56:53.258Z,4.83
2022-12-17T03:59:39.033Z,5.00
2022-12-17T04:02:24.471Z,5.13
2022-12-17T04:05:13.821Z,4.80
2022-12-17T04:08:02.018Z,5.57
2022-12-17T04:10:47.249Z,5.37
2022-12-17T04:13:35.984Z,5.40
2022-12-17T04:16:26.178Z,5.37
2022-12-17T04:19:11.439Z,5.97
2022-12-17T04:21:56.667Z,5.37
2022-12-17T04:24:41.865Z,5.60
2022-12-17T04:27:27.028Z,5.50
2022-12-17T04:30:12.316Z,6.80
2022-12-17T04:32:57.487Z,5.97
2022-12-17T04:35:44.052Z,5.30
2022-12-17T04:38:29.447Z,4.93
2022-12-17T04:41:14.722Z,5.33
2022-12-17T04:44:03.165Z,5.13
2022-12-17T04:46:49.476Z,5.27
2022-12-17T04:49:35.290Z,5.50
2022-12-17T04:52:20.518Z,5.60
2022-12-17T04:55:05.748Z,5.50
2022-12-17T04:57:51.796Z,5.17
2022-12-17T05:00:39.411Z,5.00
2022-12-17T05:03:30.298Z,6.30
2022-12-17T05:06:16.182Z,6.00
2022-12-17T05:09:01.664Z,6.60
2022-12-17T05:11:46.841Z,6.50
2022-12-17T05:14:32.189Z,6.57
2022-12-17T05:17:17.424Z,5.83
2022-12-17T05:20:02.674Z,6.50
2022-12-17T05:22:48.361Z,7.80
2022-12-17T05:25:33.928Z,8.70
2022-12-17T05:28:19.295Z,8.47
2022-12-17T05:31:11.741Z,8.40
2022-12-17T05:33:57.653Z,9.37
2022-12-17T05:36:43.490Z,7.83
2022-12-17T05:39:29.953Z,9.00
2022-12-17T05:42:15.207Z,8.90
2022-12-17T05:45:00.377Z,10.30
2022-12-17T05:47:45.845Z,10.73
2022-12-17T05:50:31.102Z,9.60
2022-12-17T05:53:24.415Z,10.30
2022-12-17T05:56:11.120Z,11.00
2022-12-17T05:58:57.716Z,10.50
2022-12-17T06:01:43.179Z,11.50
2022-12-17T06:04:29.736Z,11.33
2022-12-17T06:07:15.072Z,13.93
2022-12-17T06:10:00.347Z,12.90
2022-12-17T06:12:46.174Z,13.33
2022-12-17T06:15:32.373Z,13.50
2022-12-17T06:18:17.827Z,14.30
2022-12-17T06:21:06.210Z,12.77
2022-12-17T06:23:51.261Z,14.03
2022-12-17T06:26:37.465Z,12.97
2022-12-17T06:29:22.751Z,11.50
2022-12-17T06:32:08.318Z,12.07
2022-12-17T06:34:53.703Z,13.67
2022-12-17T06:37:39.159Z,13.40
2022-12-17T06:40:25.420Z,13.73
2022-12-17T06:43:12.786Z,13.90
2022-12-17T06:45:58.442Z,12.63
2022-12-17T06:48:43.957Z,13.40
2022-12-17T06:51:29.622Z,12.60
2022-12-17T06:54:14.907Z,13.70
2022-12-17T06:57:00.219Z,12.10
2022-12-17T06:59:45.457Z,13.63
2022-12-17T07:02:31.304Z,11.90
2022-12-17T07:05:16.666Z,13.13
2022-12-17T07:08:01.872Z,11.90
2022-12-17T07:10:47.394Z,13.23
2022-12-17T07:13:32.814Z,12.27
2022-12-17T07:16:18.291Z,14.57
2022-12-17T07:19:04.046Z,12.73
2022-12-17T07:21:49.402Z,13.50
2022-12-17T07:24:35.126Z,14.43
2022-12-17T07:27:20.349Z,14.40
2022-12-17T07:30:06.022Z,13.20
2022-12-17T07:32:51.173Z,13.57
2022-12-17T07:35:37.888Z,14.47
2022-12-17T07:38:24.259Z,11.13
2022-12-17T07:41:09.460Z,13.40
2022-12-17T07:43:55.164Z,14.43
2022-12-17T07:46:40.615Z,13.17
2022-12-17T07:49:26.466Z,14.37
2022-12-17T07:52:12.888Z,12.87
2022-12-17T07:54:58.397Z,13.87
2022-12-17T07:57:44.460Z,13.80
2022-12-17T08:00:31.227Z,13.20
2022-12-17T08:03:20.084Z,13.47
2022-12-17T08:06:05.561Z,15.37
2022-12-17T08:08:50.947Z,15.13
2022-12-17T08:11:36.259Z,13.97
2022-12-17T08:14:21.849Z,14.27
2022-12-17T08:17:07.123Z,14.13
2022-12-17T08:19:52.486Z,15.50
2022-12-17T08:22:37.826Z,15.50
2022-12-17T08:25:23.801Z,15.20
2022-12-17T08:28:49.133Z,13.97
2022-12-17T08:31:24.141Z,15.47
2022-12-17T08:34:09.565Z,16.70
2022-12-17T08:36:54.855Z,15.33
2022-12-17T08:39:40.487Z,16.10
2022-12-17T08:42:36.457Z,14.80
2022-12-17T08:45:22.558Z,14.50
2022-12-17T08:48:07.550Z,17.10
2022-12-17T08:50:52.834Z,14.93
2022-12-17T08:53:38.325Z,15.27
2022-12-17T08:56:24.809Z,15.93
2022-12-17T08:59:10.135Z,16.10
2022-12-17T09:01:55.373Z,16.93
2022-12-17T09:04:40.822Z,16.30
2022-12-17T09:07:28.260Z,15.90
2022-12-17T09:10:13.517Z,17.73
2022-12-17T09:13:04.245Z,15.83
2022-12-17T09:15:51.682Z,16.97
2022-12-17T09:18:39.610Z,16.33
2022-12-17T09:21:26.554Z,16.10
2022-12-17T09:24:11.844Z,16.90
2022-12-17T09:26:57.117Z,19.63
2022-12-17T09:29:42.481Z,18.03
2022-12-17T09:32:27.749Z,18.20
2022-12-17T09:35:13.093Z,16.60
2022-12-17T09:37:58.363Z,17.20
2022-12-17T09:40:44.077Z,14.97
2022-12-17T09:44:05.164Z,14.53
2022-12-17T09:47:07.245Z,13.30
2022-12-17T09:50:09.652Z,11.97
2022-12-17T09:52:59.865Z,11.87
2022-12-17T09:56:05.800Z,14.27
2022-12-17T09:58:55.803Z,13.03
2022-12-17T10:01:51.271Z,13.33
2022-12-17T10:04:52.446Z,14.57
2022-12-17T10:07:43.589Z,14.07
2022-12-17T10:10:50.162Z,14.37
2022-12-17T10:13:40.286Z,14.37
2022-12-17T10:16:50.994Z,14.43
2022-12-17T10:20:02.668Z,12.90
2022-12-17T10:22:58.566Z,13.20
2022-12-17T10:25:43.960Z,13.10
2022-12-17T10:28:41.263Z,15.63
2022-12-17T10:31:33.662Z,15.00
2022-12-17T10:34:18.875Z,16.57
2022-12-17T10:37:12.491Z,16.73
2022-12-17T10:40:00.382Z,16.73
2022-12-17T10:42:57.218Z,16.70
2022-12-17T10:45:54.260Z,18.53
2022-12-17T10:48:48.706Z,17.60
2022-12-17T10:51:39.101Z,17.07
2022-12-17T10:54:49.105Z,18.30
2022-12-17T10:57:55.730Z,19.70
2022-12-17T11:01:04.355Z,17.07
2022-12-17T11:04:08.925Z,17.80
2022-12-17T11:07:03.865Z,20.00
2022-12-17T11:10:12.642Z,18.67
2022-12-17T11:13:18.435Z,18.03
2022-12-17T11:16:16.490Z,17.67
2022-12-17T11:19:17.607Z,17.97
2022-12-17T11:22:18.765Z,18.10
2022-12-17T11:25:23.785Z,20.40
2022-12-17T11:28:35.829Z,19.43
2022-12-17T11:31:36.760Z,19.00
2022-12-17T11:34:39.586Z,18.80
2022-12-17T11:37:37.018Z,19.90
2022-12-17T11:40:53.314Z,21.30
2022-12-17T11:43:55.093Z,20.80
2022-12-17T11:46:49.413Z,21.03
2022-12-17T11:50:14.902Z,17.93
2022-12-17T11:53:38.716Z,19.53
2022-12-17T11:56:56.964Z,18.03
2022-12-17T11:59:55.152Z,20.00
2022-12-17T12:03:29.037Z,20.50
2022-12-17T12:06:18.701Z,20.53
2022-12-17T12:09:37.997Z,20.00
2022-12-17T12:12:53.966Z,20.97
2022-12-17T12:15:54.262Z,20.20
2022-12-17T12:18:55.104Z,19.20
2022-12-17T12:22:07.535Z,21.37
2022-12-17T12:25:27.013Z,20.30
2022-12-17T12:28:36.856Z,21.27
2022-12-17T12:31:42.328Z,18.63
2022-12-17T12:34:36.082Z,21.80
2022-12-17T12:37:23.768Z,21.93
2022-12-17T12:40:32.301Z,21.57
2022-12-17T12:43:33.055Z,21.30
2022-12-17T12:46:31.909Z,19.93
2022-12-17T12:49:41.902Z,23.20
2022-12-17T12:52:31.497Z,22.70
2022-12-17T12:55:17.828Z,19.70
2022-12-17T12:58:43.100Z,20.90
2022-12-17T13:01:29.346Z,20.47
2022-12-17T13:04:17.583Z,19.13
2022-12-17T13:06:50.715Z,19.27
2022-12-17T13:09:23.385Z,21.40
2022-12-17T13:12:02.266Z,19.13
2022-12-17T13:14:46.128Z,17.80
2022-12-17T13:17:16.314Z,18.53
2022-12-17T13:20:03.471Z,18.60
2022-12-17T13:22:33.624Z,19.90
2022-12-17T13:25:19.118Z,18.50
2022-12-17T13:27:46.742Z,19.27
2022-12-17T13:30:38.212Z,19.23
2022-12-17T13:33:08.209Z,17.77
2022-12-17T13:35:49.685Z,19.10
2022-12-17T13:38:34.104Z,18.70
2022-12-17T13:41:08.139Z,17.03
2022-12-17T13:44:21.445Z,16.10
2022-12-17T13:46:50.730Z,18.10
2022-12-17T13:49:27.012Z,16.33
2022-12-17T13:52:17.675Z,16.90
2022-12-17T13:54:45.114Z,18.80
2022-12-17T13:57:22.930Z,19.77
2022-12-17T13:59:58.911Z,19.00
2022-12-17T14:02:33.674Z,17.67
2022-12-17T14:05:07.936Z,19.73
2022-12-17T14:07:39.187Z,18.33
2022-12-17T14:10:18.318Z,19.80
2022-12-17T14:12:45.457Z,19.20
2022-12-17T14:15:26.082Z,20.50
2022-12-17T14:17:55.026Z,21.10
2022-12-17T14:20:30.149Z,19.67
2022-12-17T14:23:11.454Z,20.87
2022-12-17T14:25:40.553Z,21.20
2022-12-17T14:28:31.669Z,20.43
2022-12-17T14:31:27.041Z,19.07
2022-12-17T14:34:11.850Z,21.27
2022-12-17T14:36:43.944Z,20.47
2022-12-17T14:39:23.339Z,19.70
2022-12-17T14:42:09.738Z,22.10
2022-12-17T14:44:50.435Z,21.67
2022-12-17T14:47:22.192Z,21.23
2022-12-17T14:50:06.542Z,20.80
2022-12-17T14:53:01.507Z,21.10
2022-12-17T14:55:38.290Z,20.50
2022-12-17T14:58:14.121Z,20.10
2022-12-17T15:00:51.735Z,19.77
2022-12-17T15:03:33.152Z,19.27
2022-12-17T15:06:15.414Z,19.77
2022-12-17T15:08:49.131Z,19.77
2022-12-17T15:11:20.306Z,21.93
2022-12-17T15:13:51.407Z,19.83
2022-12-17T15:16:21.484Z,22.30
2022-12-17T15:18:48.396Z,21.80
2022-12-17T15:21:17.177Z,22.63
2022-12-17T15:23:45.831Z,22.87
2022-12-17T15:26:15.110Z,21.80
2022-12-17T15:28:43.601Z,24.67
2022-12-17T15:31:13.578Z,23.80
2022-12-17T15:33:41.778Z,23.50
2022-12-17T15:36:12.839Z,30.52
2022-12-17T15:38:40.256Z,25.33
2022-12-17T15:41:25.898Z,22.80
2022-12-17T15:43:53.107Z,23.90
2022-12-17T15:46:20.064Z,23.57
2022-12-17T15:48:50.525Z,22.80
2022-12-17T15:51:21.161Z,22.90
2022-12-17T15:53:48.674Z,21.73
2022-12-17T15:56:24.911Z,23.70
2022-12-17T15:58:54.219Z,22.97
2022-12-17T16:01:21.317Z,23.80
2022-12-17T16:03:48.477Z,24.50
2022-12-17T16:06:15.510Z,22.23
2022-12-17T16:08:42.396Z,22.73
2022-12-17T16:11:11.532Z,23.90
2022-12-17T16:13:39.138Z,23.70
2022-12-17T16:16:07.806Z,23.10
2022-12-17T16:18:38.522Z,22.70
2022-12-17T16:21:09.076Z,23.87
2022-12-17T16:23:36.679Z,23.70
2022-12-17T16:26:07.225Z,24.20
2022-12-17T16:28:36.133Z,22.53
2022-12-17T16:31:11.442Z,23.43
2022-12-17T16:33:48.207Z,23.07
2022-12-17T16:36:19.290Z,22.10
2022-12-17T16:38:50.114Z,22.47
2022-12-17T16:41:18.349Z,24.00
2022-12-17T16:43:46.405Z,22.70
2022-12-17T16:46:32.249Z,25.20
2022-12-17T16:49:05.924Z,23.80
2022-12-17T16:51:33.220Z,24.70
2022-12-17T16:54:04.778Z,23.57
2022-12-17T16:56:35.160Z,23.60
2022-12-17T16:59:08.211Z,26.63
2022-12-17T17:01:37.284Z,22.67
2022-12-17T17:04:06.703Z,24.73
2022-12-17T17:06:38.459Z,24.37
2022-12-17T17:09:05.906Z,22.90
2022-12-17T17:11:32.994Z,23.70
2022-12-17T17:14:00.142Z,24.47
2022-12-17T17:16:27.536Z,26.50
2022-12-17T17:18:54.855Z,25.37
2022-12-17T17:21:34.275Z,25.20
2022-12-17T17:24:08.428Z,27.20
2022-12-17T17:26:35.628Z,23.10
2022-12-17T17:29:03.906Z,25.53
2022-12-17T17:34:17.897Z,23.53
2022-12-17T17:36:45.027Z,27.63
2022-12-17T17:39:11.978Z,28.90
2022-12-17T17:41:39.045Z,26.93
2022-12-17T17:44:11.658Z,26.10
2022-12-17T17:46:39.350Z,25.27
2022-12-17T17:49:08.245Z,28.17
2022-12-17T17:52:08.455Z,27.83
2022-12-17T17:54:27.974Z,27.13
2022-12-17T17:56:54.886Z,28.13
2022-12-17T17:59:27.861Z,30.30
2022-12-17T18:02:00.447Z,27.50
2022-12-17T18:04:28.728Z,29.90
2022-12-17T18:07:24.322Z,25.50
2022-12-17T18:09:42.859Z,29.43
2022-12-17T18:12:37.815Z,25.97
2022-12-17T18:15:16.452Z,27.70
2022-12-17T18:17:51.384Z,26.03
2022-12-17T18:20:18.925Z,25.13
2022-12-17T18:22:46.802Z,27.77
2022-12-17T18:25:17.686Z,26.30
2022-12-17T18:27:45.008Z,28.30
2022-12-17T18:30:14.325Z,26.97
2022-12-17T18:32:41.277Z,28.60
2022-12-17T18:35:08.914Z,27.43
2022-12-17T18:37:36.359Z,25.07
2022-12-17T18:40:04.942Z,27.07
2022-12-17T18:42:50.819Z,26.00
2022-12-17T18:45:17.843Z,24.17
2022-12-17T18:47:45.095Z,27.50
2022-12-17T18:50:13.272Z,27.67
2022-12-17T18:52:40.174Z,28.30
2022-12-17T18:55:08.618Z,24.67
2022-12-17T18:57:35.532Z,27.73
2022-12-17T19:00:02.698Z,26.60
2022-12-17T19:02:29.681Z,25.50
2022-12-17T19:04:56.667Z,27.70
2022-12-17T19:07:23.534Z,24.20
2022-12-17T19:09:50.498Z,26.57
2022-12-17T19:12:17.373Z,27.57
2022-12-17T19:14:44.438Z,26.83
2022-12-17T19:17:12.447Z,23.00
2022-12-17T19:19:39.466Z,25.90
2022-12-17T19:22:06.806Z,25.67
2022-12-17T19:24:33.826Z,25.40
2022-12-17T19:27:00.742Z,24.50
2022-12-17T19:29:27.648Z,25.10
2022-12-17T19:31:54.597Z,27.17
2022-12-17T19:34:21.812Z,25.47
2022-12-17T19:36:48.801Z,26.43
2022-12-17T19:39:19.152Z,23.47
2022-12-17T19:41:46.424Z,27.03
2022-12-17T19:44:17.282Z,25.13
2022-12-17T19:46:44.782Z,27.20
2022-12-17T19:49:14.217Z,25.77
2022-12-17T19:51:44.078Z,25.57
2022-12-17T19:54:13.926Z,24.60
2022-12-17T19:56:41.984Z,24.97
2022-12-17T19:59:10.805Z,24.10
2022-12-17T20:01:42.967Z,23.70
2022-12-17T20:04:13.404Z,24.77
2022-12-17T20:06:40.273Z,26.50
2022-12-17T20:09:07.597Z,23.90
2022-12-17T20:11:35.271Z,23.17
2022-12-17T20:14:11.004Z,28.20
2022-12-17T20:16:48.171Z,25.10
2022-12-17T20:19:20.423Z,21.80
2022-12-17T20:21:47.906Z,25.27
2022-12-17T20:24:16.534Z,26.63
2022-12-17T20:26:44.770Z,26.83
2022-12-17T20:29:12.613Z,25.03
2022-12-17T20:31:39.864Z,24.17
2022-12-17T20:34:09.671Z,25.00
2022-12-17T20:36:36.810Z,25.20
2022-12-17T20:39:04.454Z,25.13
2022-12-17T20:41:32.606Z,25.50
2022-12-17T20:44:05.080Z,26.40
2022-12-17T20:46:32.450Z,23.33
2022-12-17T20:49:01.073Z,21.70
2022-12-17T20:51:29.355Z,24.50
2022-12-17T20:53:58.962Z,23.97
2022-12-17T20:56:29.466Z,23.17
2022-12-17T20:59:00.249Z,22.53
2022-12-17T21:01:29.901Z,22.33
2022-12-17T21:03:57.945Z,18.60
2022-12-17T21:06:32.500Z,20.60
2022-12-17T21:08:59.808Z,21.10
2022-12-17T21:11:29.999Z,21.17
2022-12-17T21:13:57.386Z,20.20
2022-12-17T21:16:29.611Z,20.97
2022-12-17T21:18:58.723Z,21.03
2022-12-17T21:21:29.346Z,21.40
2022-12-17T21:23:57.572Z,18.97
2022-12-17T21:26:32.012Z,20.57
2022-12-17T21:29:00.374Z,21.40
2022-12-17T21:31:35.512Z,22.03
2022-12-17T21:34:04.950Z,19.17
2022-12-17T21:36:34.553Z,18.90
2022-12-17T21:39:02.895Z,18.73
2022-12-17T21:41:39.340Z,19.40
2022-12-17T21:44:15.365Z,17.77
2022-12-17T21:46:43.642Z,21.03
2022-12-17T21:49:13.790Z,19.27
2022-12-17T21:51:40.904Z,18.03
2022-12-17T21:54:08.598Z,18.40
2022-12-17T21:56:36.439Z,17.27
2022-12-17T21:59:03.623Z,18.83
2022-12-17T22:01:33.879Z,18.07
2022-12-17T22:04:04.294Z,19.23
2022-12-17T22:06:36.047Z,18.50
2022-12-17T22:09:15.169Z,18.00
2022-12-17T22:12:15.162Z,17.90
2022-12-17T22:14:42.128Z,19.20
2022-12-17T22:17:09.036Z,17.70
2022-12-17T22:19:36.031Z,19.47
2022-12-17T22:22:03.043Z,16.63
2022-12-17T22:24:36.206Z,17.00
2022-12-17T22:27:04.049Z,18.20
2022-12-17T22:29:52.168Z,19.57
2022-12-17T22:32:37.338Z,18.60
2022-12-17T22:36:24.402Z,18.50
2022-12-17T22:40:21.353Z,18.37
2022-12-17T22:44:30.407Z,19.10
2022-12-17T22:44:31.830Z,17.77
2022-12-17T22:46:17.338Z,17.63
2022-12-17T22:48:44.587Z,18.30
2022-12-17T22:51:15.152Z,16.83
2022-12-17T22:53:44.998Z,17.10
2022-12-17T22:56:22.525Z,17.90
2022-12-17T22:58:59.394Z,15.43
2022-12-17T23:01:26.947Z,18.90
2022-12-17T23:03:59.901Z,17.70
2022-12-17T23:06:27.749Z,16.87
2022-12-17T23:08:55.877Z,18.57
2022-12-17T23:11:26.026Z,18.90
2022-12-17T23:13:54.726Z,19.87
2022-12-17T23:16:22.120Z,19.47
2022-12-17T23:18:51.309Z,19.60
2022-12-17T23:21:22.483Z,18.17
2022-12-17T23:23:50.480Z,19.00
2022-12-17T23:26:27.302Z,20.70
2022-12-17T23:28:59.954Z,18.77
2022-12-17T23:31:32.138Z,19.50
2022-12-17T23:33:59.224Z,18.87
2022-12-17T23:36:26.471Z,18.47
2022-12-17T23:38:56.135Z,18.97
2022-12-17T23:41:29.674Z,18.53
2022-12-17T23:43:57.620Z,18.60
2022-12-17T23:46:26.899Z,19.73
2022-12-17T23:48:55.167Z,19.50
2022-12-17T23:51:24.160Z,19.90
2022-12-17T23:53:51.196Z,18.70
2022-12-17T23:56:25.170Z,15.73
2022-12-17T23:58:58.697Z,18.07
